createdAt,value
2023-04-11T00:00:53.312Z,6.75
2023-04-11T00:02:59.915Z,3.75
2023-04-11T00:05:03.331Z,6.82
2023-04-11T00:07:07.660Z,6.35
2023-04-11T00:09:11.780Z,2.38
2023-04-11T00:11:14.417Z,4.70
2023-04-11T00:13:19.647Z,4.05
2023-04-11T00:15:24.529Z,4.05
2023-04-11T00:17:31.280Z,4.38
2023-04-11T00:19:33.902Z,4.05
2023-04-11T00:21:39.784Z,7.07
2023-04-11T00:23:42.364Z,6.88
2023-04-11T00:25:44.892Z,4.63
2023-04-11T00:27:47.430Z,3.75
2023-04-11T00:29:49.959Z,1.95
2023-04-11T00:31:55.497Z,7.20
2023-04-11T00:33:58.198Z,4.47
2023-04-11T00:36:00.834Z,2.47
2023-04-11T00:38:03.974Z,3.65
2023-04-11T00:40:07.779Z,3.47
2023-04-11T00:42:10.927Z,5.00
2023-04-11T00:44:13.849Z,3.97
2023-04-11T00:46:18.002Z,3.20
2023-04-11T00:48:22.328Z,4.00
2023-04-11T00:50:25.013Z,3.70
2023-04-11T00:52:27.664Z,3.03
2023-04-11T00:54:31.130Z,4.63
2023-04-11T00:56:33.743Z,2.33
2023-04-11T00:58:37.963Z,3.60
2023-04-11T01:00:41.542Z,6.28
2023-04-11T01:02:45.301Z,4.82
2023-04-11T01:04:51.577Z,6.90
2023-04-11T01:06:59.506Z,5.13
2023-04-11T01:09:04.793Z,1.67
2023-04-11T01:11:09.007Z,4.25
2023-04-11T01:13:12.238Z,4.43
2023-04-11T01:15:14.946Z,4.90
2023-04-11T01:17:17.757Z,4.28
2023-04-11T01:19:22.104Z,5.72
2023-04-11T01:21:27.077Z,3.92
2023-04-11T01:23:31.151Z,4.13
2023-04-11T01:25:33.852Z,3.20
2023-04-11T01:27:37.725Z,2.17
2023-04-11T01:29:40.525Z,4.05
2023-04-11T01:31:43.107Z,7.10
2023-04-11T01:33:45.879Z,5.55
2023-04-11T01:35:48.549Z,4.68
2023-04-11T01:37:51.195Z,4.05
2023-04-11T01:39:55.249Z,2.92
2023-04-11T01:41:59.738Z,3.88
2023-04-11T01:44:02.860Z,4.18
2023-04-11T01:46:05.753Z,2.92
2023-04-11T01:48:08.830Z,4.57
2023-04-11T01:50:12.223Z,3.25
2023-04-11T01:52:14.771Z,3.75
2023-04-11T01:54:17.341Z,4.88
2023-04-11T01:56:24.028Z,4.93
2023-04-11T01:58:26.594Z,4.70
2023-04-11T02:00:29.127Z,4.40
2023-04-11T02:02:31.790Z,5.55
2023-04-11T02:04:34.534Z,3.90
2023-04-11T02:06:38.526Z,2.30
2023-04-11T02:08:41.061Z,3.65
2023-04-11T02:10:43.605Z,3.95
2023-04-11T02:12:47.525Z,2.60
2023-04-11T02:14:50.283Z,3.13
2023-04-11T02:16:54.219Z,3.85
2023-04-11T02:18:57.911Z,6.18
2023-04-11T02:21:00.689Z,3.88
2023-04-11T02:23:04.412Z,3.28
2023-04-11T02:25:08.303Z,4.78
2023-04-11T02:27:11.929Z,3.58
2023-04-11T02:29:15.980Z,3.95
2023-04-11T02:31:18.586Z,4.28
2023-04-11T02:33:21.267Z,4.22
2023-04-11T02:35:23.788Z,2.78
2023-04-11T02:37:26.767Z,4.30
2023-04-11T02:39:29.752Z,4.28
2023-04-11T02:41:32.268Z,4.05
2023-04-11T02:43:34.815Z,2.72
2023-04-11T02:45:38.732Z,2.13
2023-04-11T02:47:41.327Z,2.83
2023-04-11T02:49:43.979Z,5.18
2023-04-11T02:51:49.039Z,4.88
2023-04-11T02:53:54.297Z,3.58
2023-04-11T02:55:56.837Z,6.25
2023-04-11T02:57:59.393Z,4.30
2023-04-11T03:00:02.009Z,3.42
2023-04-11T03:02:06.079Z,3.40
2023-04-11T03:04:08.722Z,3.13
2023-04-11T03:06:11.632Z,3.40
2023-04-11T03:08:14.192Z,3.63
2023-04-11T03:10:16.805Z,3.53
2023-04-11T03:12:20.075Z,3.05
2023-04-11T03:14:22.620Z,2.83
2023-04-11T03:16:25.505Z,3.15
2023-04-11T03:18:29.441Z,2.33
2023-04-11T03:20:32.005Z,4.30
2023-04-11T03:22:34.596Z,1.52
2023-04-11T03:24:39.250Z,1.52
2023-04-11T03:26:41.807Z,3.95
2023-04-11T03:28:44.336Z,2.08
2023-04-11T03:30:48.747Z,2.45
2023-04-11T03:32:52.974Z,1.42
2023-04-11T03:34:57.969Z,1.95
2023-04-11T03:37:00.494Z,4.55
2023-04-11T03:39:03.771Z,1.63
2023-04-11T03:41:06.954Z,1.80
2023-04-11T03:43:09.519Z,0.90
2023-04-11T03:45:12.132Z,4.93
2023-04-11T03:47:17.541Z,1.60
2023-04-11T03:49:20.087Z,2.03
2023-04-11T03:51:24.014Z,2.45
2023-04-11T03:53:26.569Z,0.95
2023-04-11T03:55:29.409Z,3.13
2023-04-11T03:57:32.293Z,1.08
2023-04-11T03:59:34.862Z,2.15
2023-04-11T04:01:38.490Z,1.13
2023-04-11T04:03:41.370Z,0.50
2023-04-11T04:05:44.071Z,1.63
2023-04-11T04:07:47.983Z,1.67
2023-04-11T04:09:50.753Z,0.40
2023-04-11T04:11:53.313Z,0.35
2023-04-11T04:13:56.082Z,1.23
2023-04-11T04:16:00.662Z,0.85
2023-04-11T04:18:04.736Z,1.95
2023-04-11T04:20:09.368Z,2.63
2023-04-11T04:22:13.254Z,0.90
2023-04-11T04:24:17.458Z,0.90
2023-04-11T04:26:25.084Z,1.85
2023-04-11T04:28:27.883Z,4.45
2023-04-11T04:30:30.408Z,1.25
2023-04-11T04:32:32.995Z,0.60
2023-04-11T04:34:35.559Z,1.08
2023-04-11T04:36:46.324Z,1.13
2023-04-11T04:38:48.863Z,0.77
2023-04-11T04:40:54.715Z,0.50
2023-04-11T04:42:59.052Z,2.60
2023-04-11T04:45:01.651Z,0.55
2023-04-11T04:47:04.213Z,1.13
2023-04-11T04:49:07.707Z,1.08
2023-04-11T04:51:10.345Z,2.15
2023-04-11T04:53:12.905Z,1.10
2023-04-11T04:55:15.599Z,0.50
2023-04-11T04:57:19.545Z,1.20
2023-04-11T04:59:22.065Z,0.98
2023-04-11T05:01:26.848Z,1.73
2023-04-11T05:03:30.407Z,1.45
2023-04-11T05:05:33.121Z,1.45
2023-04-11T05:07:36.179Z,1.45
2023-04-11T05:09:38.707Z,1.35
2023-04-11T05:11:41.261Z,1.83
2023-04-11T05:13:45.178Z,1.05
2023-04-11T05:15:51.285Z,2.40
2023-04-11T05:17:53.852Z,1.27
2023-04-11T05:19:56.468Z,1.25
2023-04-11T05:21:59.915Z,0.95
2023-04-11T05:24:02.454Z,0.65
2023-04-11T05:26:05.350Z,3.08
2023-04-11T05:28:07.961Z,1.33
2023-04-11T05:30:13.257Z,0.85
2023-04-11T05:32:15.890Z,1.20
2023-04-11T05:34:18.546Z,1.20
2023-04-11T05:36:21.209Z,1.10
2023-04-11T05:38:23.726Z,1.30
2023-04-11T05:40:26.298Z,3.25
2023-04-11T05:42:28.861Z,1.63
2023-04-11T05:44:31.391Z,1.15
2023-04-11T05:46:37.000Z,1.85
2023-04-11T05:48:39.699Z,1.00
2023-04-11T05:50:42.419Z,0.82
2023-04-11T05:52:44.987Z,1.15
2023-04-11T05:54:47.557Z,1.13
2023-04-11T05:56:50.108Z,1.20
2023-04-11T05:58:53.114Z,2.13
2023-04-11T06:00:55.647Z,2.33
2023-04-11T06:03:00.195Z,2.42
2023-04-11T06:05:03.902Z,1.08
2023-04-11T06:07:07.632Z,3.03
2023-04-11T06:09:10.870Z,2.25
2023-04-11T06:11:13.450Z,1.42
2023-04-11T06:13:16.041Z,1.33
2023-04-11T06:15:18.787Z,3.22
2023-04-11T06:17:21.417Z,2.75
2023-04-11T06:19:25.314Z,3.30
2023-04-11T06:21:27.837Z,2.83
2023-04-11T06:23:30.406Z,4.15
2023-04-11T06:25:32.944Z,2.75
2023-04-11T06:27:35.604Z,3.50
2023-04-11T06:29:38.326Z,3.25
2023-04-11T06:31:41.418Z,2.72
2023-04-11T06:33:44.086Z,4.78
2023-04-11T06:35:47.980Z,4.15
2023-04-11T06:37:50.521Z,2.10
2023-04-11T06:39:53.117Z,2.20
2023-04-11T06:41:56.435Z,3.35
2023-04-11T06:43:59.206Z,4.28
2023-04-11T06:46:01.975Z,1.88
2023-04-11T06:48:04.925Z,1.17
2023-04-11T06:50:08.893Z,3.10
2023-04-11T06:52:12.820Z,2.75
2023-04-11T06:54:15.520Z,1.38
2023-04-11T06:56:18.059Z,3.42
2023-04-11T06:58:20.665Z,2.03
2023-04-11T07:00:23.399Z,6.40
2023-04-11T07:02:26.379Z,2.22
2023-04-11T07:04:29.214Z,2.45
2023-04-11T07:06:32.480Z,2.10
2023-04-11T07:08:36.781Z,2.28
2023-04-11T07:10:39.304Z,2.45
2023-04-11T07:12:41.828Z,1.73
2023-04-11T07:14:44.437Z,3.97
2023-04-11T07:16:46.979Z,3.00
2023-04-11T07:18:49.832Z,3.85
2023-04-11T07:20:52.727Z,6.95
2023-04-11T07:22:56.643Z,7.15
2023-04-11T07:25:00.504Z,2.88
2023-04-11T07:27:03.089Z,4.85
2023-04-11T07:29:07.239Z,5.20
2023-04-11T07:31:13.795Z,2.90
2023-04-11T07:33:16.416Z,4.15
2023-04-11T07:35:18.986Z,5.13
2023-04-11T07:37:21.508Z,3.25
2023-04-11T07:39:24.096Z,3.53
2023-04-11T07:41:28.057Z,2.42
2023-04-11T07:43:31.232Z,5.03
2023-04-11T07:45:34.335Z,6.03
2023-04-11T07:47:36.936Z,4.68
2023-04-11T07:49:39.494Z,4.88
2023-04-11T07:51:42.039Z,2.63
2023-04-11T07:53:44.608Z,3.95
2023-04-11T07:55:47.182Z,3.13
2023-04-11T07:57:51.106Z,4.15
2023-04-11T07:59:53.647Z,3.85
2023-04-11T08:02:00.871Z,4.47
2023-04-11T08:04:04.010Z,3.70
2023-04-11T08:06:07.712Z,3.60
2023-04-11T08:08:10.497Z,2.70
2023-04-11T08:10:13.076Z,6.93
2023-04-11T08:12:16.601Z,6.22
2023-04-11T08:14:20.580Z,2.47
2023-04-11T08:16:23.230Z,4.57
2023-04-11T08:18:25.963Z,5.20
2023-04-11T08:20:28.682Z,5.80
2023-04-11T08:22:33.079Z,10.23
2023-04-11T08:24:35.643Z,4.18
2023-04-11T08:26:38.205Z,4.32
2023-04-11T08:28:42.820Z,7.72
2023-04-11T08:30:47.544Z,7.00
2023-04-11T08:32:50.219Z,6.28
2023-04-11T08:34:52.755Z,6.60
2023-04-11T08:36:55.297Z,8.55
2023-04-11T08:39:00.061Z,7.60
2023-04-11T08:41:02.593Z,8.43
2023-04-11T08:43:10.051Z,7.00
2023-04-11T08:45:13.316Z,5.05
2023-04-11T08:47:17.646Z,7.38
2023-04-11T08:49:20.201Z,7.30
2023-04-11T08:51:27.573Z,3.63
2023-04-11T08:53:31.516Z,8.77
2023-04-11T08:55:34.086Z,9.00
2023-04-11T08:57:39.071Z,6.35
2023-04-11T08:59:49.843Z,6.70
2023-04-11T09:01:52.654Z,8.68
2023-04-11T09:03:57.429Z,8.57
2023-04-11T09:06:10.236Z,5.78
2023-04-11T09:08:14.401Z,7.15
2023-04-11T09:10:21.339Z,9.70
2023-04-11T09:12:30.737Z,6.75
2023-04-11T09:14:33.581Z,6.57
2023-04-11T09:16:36.744Z,10.23
2023-04-11T09:18:40.602Z,7.00
2023-04-11T09:20:44.561Z,5.10
2023-04-11T09:22:50.282Z,5.82
2023-04-11T09:25:03.499Z,5.32
2023-04-11T09:27:13.602Z,8.73
2023-04-11T09:29:36.837Z,6.65
2023-04-11T09:31:42.269Z,11.32
2023-04-11T09:33:57.144Z,14.48
2023-04-11T09:36:02.584Z,10.68
2023-04-11T09:38:09.222Z,7.45
2023-04-11T09:40:12.456Z,9.40
2023-04-11T09:42:25.096Z,5.78
2023-04-11T09:44:37.338Z,8.55
2023-04-11T09:46:57.333Z,11.15
2023-04-11T09:49:01.517Z,7.70
2023-04-11T09:51:07.815Z,7.72
2023-04-11T09:53:11.540Z,4.55
2023-04-11T09:55:16.288Z,6.38
2023-04-11T09:57:20.339Z,12.00
2023-04-11T09:59:24.047Z,6.30
2023-04-11T10:01:27.271Z,7.00
2023-04-11T10:03:34.614Z,5.22
2023-04-11T10:05:39.589Z,9.05
2023-04-11T10:07:54.994Z,8.80
2023-04-11T10:09:57.647Z,4.25
2023-04-11T10:12:00.427Z,7.75
2023-04-11T10:14:03.064Z,7.32
2023-04-11T10:16:10.175Z,5.50
2023-04-11T10:18:13.740Z,6.15
2023-04-11T10:20:47.184Z,8.35
2023-04-11T10:23:01.455Z,5.47
2023-04-11T10:25:16.516Z,8.02
2023-04-11T10:27:48.859Z,5.45
2023-04-11T10:29:53.030Z,3.83
2023-04-11T10:32:11.529Z,5.55
2023-04-11T10:34:15.364Z,7.63
2023-04-11T10:36:18.515Z,6.82
2023-04-11T10:38:51.382Z,7.90
2023-04-11T10:41:26.282Z,6.35
2023-04-11T10:43:28.965Z,5.00
2023-04-11T10:45:32.341Z,4.88
2023-04-11T10:47:35.076Z,5.03
2023-04-11T10:49:39.311Z,4.75
2023-04-11T10:51:42.020Z,2.67
2023-04-11T10:53:47.246Z,3.22
2023-04-11T10:55:51.912Z,9.10
2023-04-11T10:58:08.057Z,6.22
2023-04-11T11:00:14.365Z,6.40
2023-04-11T11:02:19.431Z,4.78
2023-04-11T11:04:32.081Z,4.05
2023-04-11T11:06:46.245Z,7.38
2023-04-11T11:08:49.781Z,9.48
2023-04-11T11:10:54.179Z,5.60
2023-04-11T11:12:57.177Z,5.30
2023-04-11T11:14:59.731Z,7.53
2023-04-11T11:17:03.064Z,4.82
2023-04-11T11:19:06.363Z,4.78
2023-04-11T11:21:14.042Z,5.65
2023-04-11T11:23:19.749Z,5.53
2023-04-11T11:25:22.316Z,6.35
2023-04-11T11:27:26.307Z,6.47
2023-04-11T11:29:32.833Z,7.53
2023-04-11T11:31:37.733Z,8.23
2023-04-11T11:33:41.516Z,13.07
2023-04-11T11:35:46.962Z,7.03
2023-04-11T11:37:52.017Z,5.95
2023-04-11T11:39:54.902Z,4.00
2023-04-11T11:41:58.098Z,6.13
2023-04-11T11:44:02.302Z,2.50
2023-04-11T11:46:09.900Z,6.65
2023-04-11T11:48:21.290Z,7.68
2023-04-11T11:50:28.862Z,6.47
2023-04-11T11:52:33.678Z,5.20
2023-04-11T11:54:44.342Z,3.53
2023-04-11T11:56:52.427Z,6.72
2023-04-11T11:58:55.274Z,5.35
2023-04-11T12:00:59.452Z,6.53
2023-04-11T12:03:03.544Z,5.45
2023-04-11T12:05:07.867Z,6.75
2023-04-11T12:07:12.089Z,6.20
2023-04-11T12:09:14.635Z,6.32
2023-04-11T12:11:18.304Z,3.22
2023-04-11T12:13:22.611Z,4.88
2023-04-11T12:15:25.583Z,5.70
2023-04-11T12:17:36.288Z,5.10
2023-04-11T12:19:43.167Z,5.60
2023-04-11T12:21:45.800Z,3.85
2023-04-11T12:23:48.331Z,8.48
2023-04-11T12:25:51.151Z,4.57
2023-04-11T12:27:53.964Z,7.10
2023-04-11T12:29:56.775Z,3.28
2023-04-11T12:31:59.313Z,4.47
2023-04-11T12:34:03.314Z,9.55
2023-04-11T12:36:07.750Z,5.38
2023-04-11T12:38:11.936Z,10.02
2023-04-11T12:40:17.907Z,7.40
2023-04-11T12:42:23.827Z,7.40
2023-04-11T12:44:29.166Z,7.65
2023-04-11T12:46:33.566Z,4.05
2023-04-11T12:48:36.589Z,6.53
2023-04-11T12:50:40.858Z,7.13
2023-04-11T12:52:43.426Z,5.30
2023-04-11T12:54:48.808Z,4.78
2023-04-11T12:56:51.346Z,3.83
2023-04-11T12:58:53.953Z,5.25
2023-04-11T13:00:56.648Z,3.95
2023-04-11T13:02:59.522Z,6.85
2023-04-11T13:05:08.653Z,3.45
2023-04-11T13:07:12.592Z,7.72
2023-04-11T13:09:15.632Z,3.92
2023-04-11T13:11:18.184Z,8.10
2023-04-11T13:13:20.826Z,6.00
2023-04-11T13:15:23.407Z,5.43
2023-04-11T13:17:25.982Z,5.30
2023-04-11T13:19:28.567Z,5.05
2023-04-11T13:21:31.615Z,7.82
2023-04-11T13:23:36.130Z,3.50
2023-04-11T13:25:38.679Z,5.93
2023-04-11T13:27:42.067Z,6.45
2023-04-11T13:29:44.671Z,6.72
2023-04-11T13:31:47.237Z,5.22
2023-04-11T13:33:49.808Z,7.32
2023-04-11T13:35:52.366Z,4.43
2023-04-11T13:37:54.904Z,6.20
2023-04-11T13:39:58.802Z,3.63
2023-04-11T13:42:01.359Z,5.47
2023-04-11T13:44:03.937Z,5.65
2023-04-11T13:46:06.876Z,4.85
2023-04-11T13:48:09.502Z,3.75
2023-04-11T13:50:12.248Z,7.43
2023-04-11T13:52:14.863Z,8.73
2023-04-11T13:54:17.611Z,2.92
2023-04-11T13:56:21.528Z,7.28
2023-04-11T13:58:24.062Z,4.43
2023-04-11T14:00:26.724Z,3.65
2023-04-11T14:02:29.352Z,4.00
2023-04-11T14:04:32.171Z,4.57
2023-04-11T14:06:35.360Z,4.63
2023-04-11T14:08:38.121Z,6.45
2023-04-11T14:10:44.214Z,5.20
2023-04-11T14:12:48.498Z,4.57
2023-04-11T14:14:51.090Z,7.03
2023-04-11T14:16:54.001Z,4.38
2023-04-11T14:18:56.856Z,8.00
2023-04-11T14:21:01.642Z,5.55
2023-04-11T14:23:04.296Z,8.05
2023-04-11T14:25:10.419Z,6.15
2023-04-11T14:27:12.951Z,6.90
2023-04-11T14:29:17.540Z,7.70
2023-04-11T14:31:20.142Z,4.22
2023-04-11T14:33:23.007Z,5.10
2023-04-11T14:35:26.192Z,5.65
2023-04-11T14:37:28.720Z,6.07
2023-04-11T14:39:31.641Z,4.82
2023-04-11T14:41:34.207Z,7.75
2023-04-11T14:43:36.954Z,5.82
2023-04-11T14:45:41.204Z,8.77
2023-04-11T14:47:43.836Z,3.83
2023-04-11T14:49:46.664Z,5.95
2023-04-11T14:51:49.216Z,7.40
2023-04-11T14:53:55.164Z,6.70
2023-04-11T14:55:58.055Z,4.10
2023-04-11T14:58:00.696Z,6.57
2023-04-11T15:00:06.440Z,3.88
2023-04-11T15:02:10.713Z,4.28
2023-04-11T15:04:13.422Z,6.55
2023-04-11T15:06:16.220Z,7.32
2023-04-11T15:08:18.758Z,6.60
2023-04-11T15:10:23.342Z,4.07
2023-04-11T15:12:25.990Z,4.60
2023-04-11T15:14:30.178Z,5.10
2023-04-11T15:16:32.827Z,7.47
2023-04-11T15:18:36.788Z,7.03
2023-04-11T15:20:39.466Z,5.05
2023-04-11T15:22:43.550Z,8.35
2023-04-11T15:24:46.086Z,4.82
2023-04-11T15:26:48.656Z,4.10
2023-04-11T15:28:51.233Z,7.85
2023-04-11T15:30:55.300Z,3.70
2023-04-11T15:32:58.565Z,6.07
2023-04-11T15:35:02.833Z,7.68
2023-04-11T15:37:11.277Z,3.70
2023-04-11T15:39:13.873Z,6.22
2023-04-11T15:41:16.442Z,5.00
2023-04-11T15:43:19.376Z,4.43
2023-04-11T15:45:22.135Z,7.03
2023-04-11T15:47:24.715Z,6.53
2023-04-11T15:49:27.259Z,5.07
2023-04-11T15:51:31.209Z,6.85
2023-04-11T15:53:33.742Z,7.88
2023-04-11T15:55:39.640Z,5.13
2023-04-11T15:57:42.222Z,6.95
2023-04-11T15:59:44.896Z,7.05
2023-04-11T16:01:47.519Z,4.85
2023-04-11T16:03:51.536Z,5.68
2023-04-11T16:05:54.276Z,6.88
2023-04-11T16:07:58.266Z,6.30
2023-04-11T16:10:00.806Z,7.60
2023-04-11T16:12:03.510Z,9.38
2023-04-11T16:14:06.319Z,10.07
2023-04-11T16:16:10.454Z,4.85
2023-04-11T16:18:13.087Z,4.75
2023-04-11T16:20:18.444Z,7.10
2023-04-11T16:22:21.165Z,7.18
2023-04-11T16:24:25.882Z,3.63
2023-04-11T16:26:28.461Z,5.25
2023-04-11T16:28:31.002Z,8.30
2023-04-11T16:30:34.481Z,7.25
2023-04-11T16:32:37.063Z,5.30
2023-04-11T16:34:39.985Z,6.53
2023-04-11T16:36:42.623Z,9.32
2023-04-11T16:38:45.161Z,6.50
2023-04-11T16:40:49.091Z,4.50
2023-04-11T16:42:51.698Z,6.90
2023-04-11T16:44:54.281Z,6.50
2023-04-11T16:46:56.829Z,6.50
2023-04-11T16:49:00.188Z,4.05
2023-04-11T16:51:02.952Z,5.75
2023-04-11T16:53:05.506Z,8.60
2023-04-11T16:55:08.639Z,7.70
2023-04-11T16:57:12.574Z,5.32
2023-04-11T16:59:15.923Z,7.82
2023-04-11T17:01:18.539Z,3.67
2023-04-11T17:03:21.741Z,9.55
2023-04-11T17:05:24.888Z,5.32
2023-04-11T17:07:28.452Z,5.75
2023-04-11T17:09:31.541Z,4.30
2023-04-11T17:11:36.790Z,5.22
2023-04-11T17:13:45.120Z,4.25
2023-04-11T17:15:47.677Z,7.28
2023-04-11T17:17:50.666Z,6.65
2023-04-11T17:19:53.443Z,6.93
2023-04-11T17:21:57.393Z,7.18
2023-04-11T17:24:00.080Z,7.88
2023-04-11T17:26:03.224Z,7.63
2023-04-11T17:28:06.191Z,10.30
2023-04-11T17:30:12.085Z,9.73
2023-04-11T17:32:14.651Z,6.18
2023-04-11T17:34:17.201Z,6.00
2023-04-11T17:36:19.824Z,6.85
2023-04-11T17:38:22.362Z,7.13
2023-04-11T17:40:24.961Z,3.22
2023-04-11T17:42:27.521Z,6.20
2023-04-11T17:44:30.690Z,8.95
2023-04-11T17:46:35.473Z,7.18
2023-04-11T17:48:38.082Z,8.63
2023-04-11T17:50:40.864Z,7.63
2023-04-11T17:52:45.170Z,7.10
2023-04-11T17:54:47.983Z,6.45
2023-04-11T17:56:50.616Z,10.20
2023-04-11T17:58:53.593Z,8.05
2023-04-11T18:00:57.225Z,9.02
2023-04-11T18:03:02.903Z,5.65
2023-04-11T18:05:13.293Z,7.90
2023-04-11T18:07:25.612Z,10.48
2023-04-11T18:09:31.723Z,4.93
2023-04-11T18:11:34.279Z,7.65
2023-04-11T18:13:36.895Z,10.48
2023-04-11T18:15:39.489Z,7.18
2023-04-11T18:17:42.452Z,6.95
2023-04-11T18:19:46.428Z,6.30
2023-04-11T18:21:50.523Z,6.00
2023-04-11T18:23:53.397Z,7.97
2023-04-11T18:25:55.958Z,8.48
2023-04-11T18:27:58.528Z,5.65
2023-04-11T18:30:02.136Z,13.52
2023-04-11T18:32:04.729Z,12.57
2023-04-11T18:34:08.298Z,10.27
2023-04-11T18:36:12.973Z,7.22
2023-04-11T18:38:16.245Z,10.55
2023-04-11T18:40:19.527Z,7.45
2023-04-11T18:42:22.185Z,5.57
2023-04-11T18:44:27.185Z,8.50
2023-04-11T18:46:34.334Z,7.78
2023-04-11T18:48:38.090Z,13.13
2023-04-11T18:50:42.863Z,6.68
2023-04-11T18:52:51.192Z,8.35
2023-04-11T18:54:56.485Z,6.78
2023-04-11T18:56:59.686Z,11.27
2023-04-11T18:59:05.504Z,10.75
2023-04-11T19:01:16.576Z,11.65
2023-04-11T19:03:20.795Z,5.63
2023-04-11T19:05:25.555Z,12.95
2023-04-11T19:07:28.377Z,7.43
2023-04-11T19:09:32.787Z,12.68
2023-04-11T19:11:38.416Z,12.23
2023-04-11T19:13:41.158Z,8.85
2023-04-11T19:15:43.831Z,6.45
2023-04-11T19:17:47.376Z,11.20
2023-04-11T19:19:51.970Z,11.00
2023-04-11T19:21:54.537Z,8.48
2023-04-11T19:23:57.567Z,10.63
2023-04-11T19:26:02.254Z,10.70
2023-04-11T19:28:05.196Z,13.55
2023-04-11T19:30:10.439Z,9.45
2023-04-11T19:32:13.163Z,12.23
2023-04-11T19:34:16.109Z,14.10
2023-04-11T19:36:19.163Z,12.70
2023-04-11T19:38:22.213Z,12.13
2023-04-11T19:40:25.228Z,14.68
2023-04-11T19:42:30.701Z,12.45
2023-04-11T19:44:33.678Z,14.43
2023-04-11T19:46:36.682Z,15.95
2023-04-11T19:48:39.924Z,15.18
2023-04-11T19:50:42.564Z,13.63
2023-04-11T19:52:47.972Z,14.98
2023-04-11T19:54:50.594Z,16.38
2023-04-11T19:56:53.522Z,16.00
2023-04-11T19:58:59.641Z,16.27
2023-04-11T20:01:02.537Z,14.82
2023-04-11T20:03:07.575Z,12.70
2023-04-11T20:05:10.836Z,14.57
2023-04-11T20:07:13.395Z,14.02
2023-04-11T20:09:15.944Z,10.82
2023-04-11T20:11:20.272Z,11.75
2023-04-11T20:13:22.841Z,14.68
2023-04-11T20:15:26.934Z,12.82
2023-04-11T20:17:29.535Z,9.75
2023-04-11T20:19:33.156Z,11.75
2023-04-11T20:21:35.701Z,11.35
2023-04-11T20:23:39.194Z,10.73
2023-04-11T20:25:42.249Z,11.10
2023-04-11T20:27:44.791Z,9.20
2023-04-11T20:29:47.324Z,9.77
2023-04-11T20:31:51.269Z,8.52
2023-04-11T20:33:54.991Z,7.95
2023-04-11T20:35:57.717Z,12.98
2023-04-11T20:38:00.275Z,10.05
2023-04-11T20:40:03.582Z,14.40
2023-04-11T20:42:10.583Z,11.15
2023-04-11T20:44:16.855Z,13.68
2023-04-11T20:46:21.649Z,9.55
2023-04-11T20:48:25.816Z,8.45
2023-04-11T20:50:30.788Z,9.43
2023-04-11T20:52:33.526Z,8.82
2023-04-11T20:54:36.120Z,8.98
2023-04-11T20:56:38.992Z,9.35
2023-04-11T20:58:41.646Z,12.15
2023-04-11T21:00:44.430Z,9.48
2023-04-11T21:02:49.945Z,12.02
2023-04-11T21:04:54.569Z,9.27
2023-04-11T21:06:57.640Z,10.98
2023-04-11T21:09:01.012Z,9.35
2023-04-11T21:11:03.619Z,6.28
2023-04-11T21:13:06.383Z,10.35
2023-04-11T21:15:10.305Z,9.48
2023-04-11T21:17:13.214Z,8.43
2023-04-11T21:19:15.793Z,8.32
2023-04-11T21:21:19.673Z,11.15
2023-04-11T21:23:22.571Z,9.63
2023-04-11T21:25:25.240Z,10.90
2023-04-11T21:27:27.807Z,8.13
2023-04-11T21:29:30.380Z,12.20
2023-04-11T21:31:32.974Z,6.78
2023-04-11T21:33:35.578Z,7.25
2023-04-11T21:35:38.157Z,12.68
2023-04-11T21:37:42.101Z,8.27
2023-04-11T21:39:44.671Z,8.75
2023-04-11T21:41:47.228Z,10.13
2023-04-11T21:43:49.763Z,8.73
2023-04-11T21:45:52.359Z,10.05
2023-04-11T21:47:55.044Z,7.97
2023-04-11T21:49:57.650Z,7.53
2023-04-11T21:52:00.397Z,6.90
2023-04-11T21:54:06.349Z,6.68
2023-04-11T21:56:09.987Z,9.50
2023-04-11T21:58:25.897Z,7.22
2023-04-11T22:00:31.531Z,7.35
2023-04-11T22:02:34.290Z,6.93
2023-04-11T22:04:47.516Z,7.32
2023-04-11T22:06:58.786Z,8.38
2023-04-11T22:09:03.212Z,8.50
2023-04-11T22:11:10.152Z,9.07
2023-04-11T22:13:15.821Z,7.38
2023-04-11T22:15:18.831Z,8.40
2023-04-11T22:17:22.203Z,7.78
2023-04-11T22:19:24.967Z,10.68
2023-04-11T22:21:31.849Z,7.78
2023-04-11T22:23:35.882Z,5.38
2023-04-11T22:25:38.712Z,10.23
2023-04-11T22:27:44.579Z,8.65
2023-04-11T22:29:47.136Z,10.75
2023-04-11T22:31:50.383Z,7.50
2023-04-11T22:33:53.134Z,8.00
2023-04-11T22:35:58.244Z,13.75
2023-04-11T22:38:00.854Z,9.88
2023-04-11T22:40:06.107Z,9.75
2023-04-11T22:42:08.665Z,6.35
2023-04-11T22:44:12.552Z,7.55
2023-04-11T22:46:15.347Z,9.38
2023-04-11T22:48:18.006Z,7.65
2023-04-11T22:50:21.413Z,10.70
2023-04-11T22:52:25.840Z,8.85
2023-04-11T22:54:28.945Z,7.10
2023-04-11T22:56:31.527Z,9.02
2023-04-11T22:58:34.106Z,7.05
2023-04-11T23:00:38.369Z,8.45
2023-04-11T23:02:41.194Z,6.10
2023-04-11T23:04:44.482Z,6.43
2023-04-11T23:06:49.396Z,5.15
2023-04-11T23:08:54.025Z,5.85
2023-04-11T23:10:56.577Z,6.95
2023-04-11T23:12:59.136Z,6.97
2023-04-11T23:15:02.505Z,3.85
2023-04-11T23:17:06.599Z,7.68
2023-04-11T23:19:09.916Z,7.90
2023-04-11T23:21:14.297Z,6.88
2023-04-11T23:23:16.943Z,8.35
2023-04-11T23:25:19.850Z,8.80
2023-04-11T23:27:22.757Z,6.10
2023-04-11T23:29:25.846Z,7.90
2023-04-11T23:31:28.491Z,7.45
2023-04-11T23:33:32.483Z,6.40
2023-04-11T23:35:35.394Z,9.55
2023-04-11T23:37:38.009Z,7.97
2023-04-11T23:39:41.004Z,7.80
2023-04-11T23:41:44.586Z,9.05
2023-04-11T23:43:47.232Z,5.82
2023-04-11T23:45:49.847Z,6.63
2023-04-11T23:47:52.998Z,6.57
2023-04-11T23:49:56.923Z,6.43
2023-04-11T23:51:59.512Z,7.28
2023-04-11T23:54:02.425Z,5.95
2023-04-11T23:56:05.504Z,5.47
2023-04-11T23:58:08.081Z,4.78
